»·PEaware :: VTE688 MMCN-KADM

VTE688 :: MMCN-KADM

FLIGHT INFORMATION

Flight Status: Arrived
Operator: Unknown
More flights by this operator :: More flights under this callsign
Pilot: Andrew J. (13363)
Aircraft: BOMBARDIER BD-100 CHALLENGER 300
(CL30)
More flights by this aircraft type
Origin: MMCN Ciudad Obregon Intl
Mexico
Destination: KADM Ardmore Mun
United States
More flights between these airports :: More routes between these airports
Route: PRESA2 PRESA URPAV FST J42 ABI ADM
File this flight plan on PilotEdge
Remarks:
Altitude:
(Current/Filed)
41,000ft
Speed:
(Current/Filed)
469kts
Departed: 18-Jul-18 05:13 PM
Arrived: 18-Jul-18 06:58 PM
Distance/Time
Traveled:
778nm/1:45
Distance/Time
To Go:
Arrived

Flight Plot

Page will automatically refresh every two minutes.

Flight plan parsing failed; only flown route is shown


Map Options




Map Legend


Flown Route
Filed Route
Departure Airport
Arrival Airport
Navaid (VOR, NDB)
Fix

Horizontal Profiles

Position Reports

Time Latitude Longitude Heading Altitude Ground
Speed
18-Jul-18 17:13 27.549744 -109.179997 60 23877ft 389kts
18-Jul-18 17:14 27.612187 -109.078830 58 25901ft 400kts
18-Jul-18 17:15 27.677262 -108.975175 57 27631ft 411kts
18-Jul-18 17:16 27.744084 -108.869036 57 29174ft 421kts
18-Jul-18 17:17 27.811839 -108.761225 57 30800ft 424kts
18-Jul-18 17:18 27.880496 -108.651695 58 32054ft 432kts
18-Jul-18 17:19 27.948468 -108.543004 58 33672ft 428kts
18-Jul-18 17:20 28.017285 -108.432650 58 34739ft 435kts
18-Jul-18 17:21 28.085146 -108.323559 58 35681ft 442kts
18-Jul-18 17:22 28.154312 -108.212165 58 37504ft 425kts
18-Jul-18 17:23 28.222246 -108.102392 58 38542ft 427kts
18-Jul-18 17:24 28.289941 -107.992758 59 39856ft 420kts
18-Jul-18 17:25 28.356702 -107.884345 59 40937ft 417kts
18-Jul-18 17:26 28.424077 -107.774617 58 41147ft 435kts
18-Jul-18 17:27 28.494125 -107.660281 58 41154ft 447kts
18-Jul-18 17:28 28.565423 -107.543590 58 41154ft 454kts
18-Jul-18 17:29 28.637319 -107.425597 58 41152ft 455kts
18-Jul-18 17:30 28.708970 -107.307669 59 41158ft 454kts
18-Jul-18 17:31 28.780385 -107.189801 59 41158ft 455kts
18-Jul-18 17:32 28.852193 -107.070949 59 41157ft 455kts
18-Jul-18 17:33 28.923751 -106.952160 59 41157ft 454kts
18-Jul-18 17:34 28.994779 -106.833906 58 41155ft 452kts
18-Jul-18 17:35 29.053651 -106.735651 58 41154ft 450kts
18-Jul-18 17:36 29.135656 -106.598422 57 41152ft 448kts
18-Jul-18 17:37 29.205479 -106.481237 57 41152ft 446kts
18-Jul-18 17:38 29.274935 -106.364316 57 41151ft 444kts
18-Jul-18 17:39 29.343967 -106.247770 58 41156ft 444kts
18-Jul-18 17:40 29.401579 -106.150254 58 41156ft 443kts
18-Jul-18 17:41 29.470360 -106.033533 58 41155ft 442kts
18-Jul-18 17:42 29.538937 -105.916827 58 41155ft 442kts
18-Jul-18 17:43 29.604843 -105.798317 62 41155ft 440kts
18-Jul-18 17:44 29.675404 -105.656027 62 41154ft 440kts
18-Jul-18 17:45 29.725606 -105.554102 62 41153ft 440kts
18-Jul-18 17:46 29.785580 -105.431916 62 41153ft 439kts
18-Jul-18 17:47 29.845257 -105.309936 63 41163ft 439kts
18-Jul-18 17:48 29.904975 -105.187502 63 41181ft 440kts
18-Jul-18 17:49 29.964707 -105.064620 62 41193ft 440kts
18-Jul-18 17:50 30.024344 -104.941545 62 41192ft 440kts
18-Jul-18 17:51 30.083765 -104.818596 61 41191ft 440kts
18-Jul-18 17:52 30.142728 -104.696220 61 41191ft 440kts
18-Jul-18 17:53 30.201943 -104.572912 61 41190ft 439kts
18-Jul-18 17:54 30.261052 -104.449426 61 41189ft 439kts
18-Jul-18 17:55 30.319861 -104.326174 62 41193ft 439kts
18-Jul-18 17:56 30.378602 -104.202672 62 41193ft 439kts
18-Jul-18 17:57 30.437429 -104.078599 62 41192ft 439kts
18-Jul-18 17:58 30.495959 -103.954757 62 41192ft 440kts
18-Jul-18 17:59 30.554415 -103.830675 62 41191ft 440kts
18-Jul-18 18:00 30.612826 -103.706286 62 41191ft 440kts
18-Jul-18 18:01 30.671293 -103.581376 62 41156ft 441kts
18-Jul-18 18:02 30.729631 -103.456329 62 41056ft 443kts
18-Jul-18 18:03 30.788061 -103.330674 62 41026ft 443kts
18-Jul-18 18:04 30.846614 -103.204352 62 41034ft 443kts
18-Jul-18 18:05 30.904666 -103.078665 62 41036ft 443kts
18-Jul-18 18:06 30.963940 -102.952728 59 41036ft 443kts
18-Jul-18 18:07 31.026754 -102.829531 59 41034ft 443kts
18-Jul-18 18:08 31.089519 -102.706184 59 41035ft 444kts
18-Jul-18 18:09 31.151617 -102.583784 59 41036ft 445kts
18-Jul-18 18:10 31.214422 -102.459591 59 41036ft 445kts
18-Jul-18 18:11 31.277134 -102.335176 59 41037ft 446kts
18-Jul-18 18:12 31.340028 -102.209987 59 41036ft 447kts
18-Jul-18 18:13 31.402699 -102.084839 59 41026ft 448kts
18-Jul-18 18:14 31.465542 -101.958942 59 41018ft 448kts
18-Jul-18 18:15 31.528171 -101.833064 59 41018ft 449kts
18-Jul-18 18:16 31.590935 -101.706500 59 41020ft 449kts
18-Jul-18 18:17 31.653448 -101.580014 59 41019ft 450kts
18-Jul-18 18:18 31.716046 -101.452930 59 41016ft 450kts
18-Jul-18 18:19 31.778253 -101.326217 60 41018ft 450kts
18-Jul-18 18:20 31.840700 -101.198597 60 41017ft 450kts
18-Jul-18 18:21 31.902917 -101.071003 60 41017ft 451kts
18-Jul-18 18:22 31.964979 -100.943273 59 41013ft 451kts
18-Jul-18 18:23 32.026958 -100.815282 59 41016ft 451kts
18-Jul-18 18:24 32.088947 -100.686867 59 41015ft 451kts
18-Jul-18 18:25 32.150682 -100.558536 59 41018ft 451kts
18-Jul-18 18:26 32.212322 -100.429943 59 41018ft 451kts
18-Jul-18 18:27 32.273816 -100.301201 60 41018ft 451kts
18-Jul-18 18:28 32.335237 -100.172163 60 40994ft 452kts
18-Jul-18 18:29 32.396672 -100.042647 60 40972ft 453kts
18-Jul-18 18:30 32.458155 -99.912571 60 40972ft 453kts
18-Jul-18 18:31 32.529946 -99.791102 51 40972ft 452kts
18-Jul-18 18:32 32.607341 -99.673799 51 40971ft 452kts
18-Jul-18 18:33 32.684571 -99.556882 51 40970ft 452kts
18-Jul-18 18:34 32.761902 -99.439544 51 40955ft 452kts
18-Jul-18 18:35 32.838113 -99.323558 51 40936ft 452kts
18-Jul-18 18:36 32.907746 -99.217283 51 40935ft 452kts
18-Jul-18 18:37 32.984820 -99.099261 51 40934ft 452kts
18-Jul-18 18:38 33.061817 -98.980972 50 40927ft 453kts
18-Jul-18 18:39 33.140050 -98.860463 50 39675ft 471kts
18-Jul-18 18:40 33.217086 -98.733345 53 37990ft 475kts
18-Jul-18 18:41 33.304058 -98.616957 41 36311ft 471kts
18-Jul-18 18:42 33.397948 -98.508799 42 34622ft 469kts
18-Jul-18 18:43 33.490522 -98.400707 42 32929ft 464kts
18-Jul-18 18:44 33.578009 -98.298050 42 31300ft 458kts
18-Jul-18 18:45 33.668302 -98.191739 42 29589ft 451kts
18-Jul-18 18:46 33.756882 -98.087118 42 27880ft 444kts
18-Jul-18 18:47 33.843707 -97.984253 42 26172ft 436kts
18-Jul-18 18:48 33.929081 -97.882805 42 24396ft 429kts
18-Jul-18 18:49 34.013168 -97.782590 43 22399ft 425kts
18-Jul-18 18:50 34.096333 -97.683183 43 20396ft 417kts
18-Jul-18 18:51 34.177397 -97.586010 43 18403ft 407kts
18-Jul-18 18:52 34.256130 -97.491361 43 16409ft 394kts
18-Jul-18 18:53 34.332538 -97.399252 43 14409ft 381kts
18-Jul-18 18:54 34.405917 -97.310306 44 12408ft 367kts
18-Jul-18 18:55 34.430429 -97.207867 119 10384ft 329kts
18-Jul-18 18:56 34.387351 -97.132062 124 6290ft 241kts
18-Jul-18 18:57 34.354960 -97.077050 132 3210ft 184kts
18-Jul-18 18:58 34.322895 -97.038843 135 1118ft 144kts
18-Jul-18 18:59 34.301799 -97.014011 163 768ft 20kts
18-Jul-18 19:00 34.301613 -97.021205 271 768ft 30kts
18-Jul-18 19:01 34.300257 -97.026110 181 768ft 3kts

Navigation Log

Ident Type
Flight plan parsing failed, navigation log unavailable